Time;durP1;ratioP1;P1;durP2;ratioP2;P2;SDS_P1;SDS_P2;PMS_P1;PMS_P2;Temp;Humidity;BMP_temperature;BMP_pressure;BME280_temperature;BME280_humidity;BME280_pressure;Samples;Min_cycle;Max_cycle;Signal;HPM_P1;HPM_P2
2022/03/29 00:00:50;;;;;;;12.60;7.10;;;;;;;7.01;55.77;99825.81;88258;1273;97973;-75
2022/03/29 00:03:02;;;;;;;11.50;7.00;;;;;;;6.98;55.81;99824.76;88288;1273;87076;-76
2022/03/29 00:05:12;;;;;;;12.10;7.40;;;;;;;6.95;56.01;99823.14;88302;1273;95787;-73
2022/03/29 00:07:22;;;;;;;11.70;7.60;;;;;;;6.94;56.01;99821.64;88269;1273;77424;-71
2022/03/29 00:09:31;;;;;;;12.70;7.60;;;;;;;6.95;56.13;99822.14;88283;1273;80759;-72
2022/03/29 00:11:43;;;;;;;10.00;7.20;;;;;;;6.96;56.32;99816.91;88300;1273;97711;-71
2022/03/29 00:13:52;;;;;;;11.00;6.90;;;;;;;6.97;56.32;99805.77;88284;1273;87251;-72
2022/03/29 00:16:01;;;;;;;12.00;7.50;;;;;;;6.97;56.38;99802.38;88233;1272;92658;-75
2022/03/29 00:18:28;;;;;;;13.70;8.30;;;;;;;6.96;56.38;99804.47;88287;1273;79296;-75
2022/03/29 00:20:57;;;;;;;10.50;7.80;;;;;;;6.95;56.51;99808.11;88296;1273;80141;-74
2022/03/29 00:23:06;;;;;;;12.00;8.30;;;;;;;6.93;56.50;99806.80;88274;1273;97588;-75
2022/03/29 00:25:16;;;;;;;10.40;7.20;;;;;;;6.91;56.53;99803.58;88313;1273;87235;-74
2022/03/29 00:27:24;;;;;;;11.60;7.60;;;;;;;6.89;56.66;99803.08;88274;1273;96144;-75
2022/03/29 00:29:33;;;;;;;12.70;8.00;;;;;;;6.87;56.74;99789.91;88294;1273;79973;-75
2022/03/29 00:31:42;;;;;;;12.90;9.00;;;;;;;6.85;56.86;99778.39;88314;1273;81763;-72
2022/03/29 00:33:52;;;;;;;12.70;8.10;;;;;;;6.80;56.92;99776.27;88289;1272;99050;-71
2022/03/29 00:36:01;;;;;;;12.00;8.00;;;;;;;6.74;57.16;99781.26;88288;1273;88029;-75
2022/03/29 00:38:10;;;;;;;11.70;8.70;;;;;;;6.70;57.36;99781.98;88298;1273;95748;-75
2022/03/29 00:40:20;;;;;;;12.60;8.20;;;;;;;6.66;57.20;99783.91;88304;1273;82616;-73
2022/03/29 00:42:29;;;;;;;13.10;8.30;;;;;;;6.61;57.38;99777.80;88283;1273;79444;-73
2022/03/29 00:44:38;;;;;;;14.70;8.90;;;;;;;6.59;57.48;99767.52;88282;1272;99784;-72
2022/03/29 00:46:48;;;;;;;13.90;8.10;;;;;;;6.59;57.71;99765.02;88319;1273;86983;-72
2022/03/29 00:48:57;;;;;;;13.90;8.70;;;;;;;6.60;57.97;99764.80;88309;1272;94041;-72
2022/03/29 00:51:06;;;;;;;14.30;8.80;;;;;;;6.62;58.10;99766.01;88325;1273;77365;-73
2022/03/29 00:53:18;;;;;;;13.60;10.00;;;;;;;6.63;58.24;99766.68;88232;1272;80232;-72
2022/03/29 00:55:27;;;;;;;15.00;9.40;;;;;;;6.62;58.65;99771.49;88271;1273;99805;-72
2022/03/29 00:57:40;;;;;;;13.00;9.40;;;;;;;6.62;58.34;99770.72;88287;1272;88892;-71
2022/03/29 00:59:50;;;;;;;14.50;10.60;;;;;;;6.62;58.45;99765.05;88292;1273;94014;-72
2022/03/29 01:02:00;;;;;;;16.70;10.60;;;;;;;6.62;58.49;99760.73;88305;1272;78714;-75
2022/03/29 01:04:10;;;;;;;16.90;9.80;;;;;;;6.63;58.56;99757.63;88276;1272;82296;-74
2022/03/29 01:06:19;;;;;;;14.60;9.60;;;;;;;6.64;58.63;99759.23;88327;1273;99840;-72
2022/03/29 01:08:28;;;;;;;15.40;9.50;;;;;;;6.66;58.72;99752.98;88280;1273;86503;-73
2022/03/29 01:10:37;;;;;;;15.90;10.10;;;;;;;6.71;58.75;99751.80;88302;1273;95751;-75
2022/03/29 01:12:46;;;;;;;19.10;10.80;;;;;;;6.74;59.18;99753.95;88302;1273;77639;-77
2022/03/29 01:14:59;;;;;;;18.10;10.90;;;;;;;6.79;58.83;99752.45;88288;1273;81668;-74
2022/03/29 01:19:36;;;;;;;14.70;9.70;;;;;;;6.83;58.96;99749.19;88304;1273;88332;-73
2022/03/29 01:21:53;;;;;;;15.30;9.80;;;;;;;6.83;59.01;99742.50;88292;1273;95793;-75
2022/03/29 01:24:03;;;;;;;14.20;10.70;;;;;;;6.84;59.25;99749.70;88232;1272;76970;-75
2022/03/29 01:26:12;;;;;;;15.20;10.60;;;;;;;6.84;59.03;99752.73;88294;1273;82352;-73
2022/03/29 01:28:24;;;;;;;14.10;9.90;;;;;;;6.83;59.00;99743.20;88313;1273;99864;-71
2022/03/29 01:30:34;;;;;;;14.20;10.40;;;;;;;6.83;59.25;99744.91;88300;1273;86922;-74
2022/03/29 01:32:47;;;;;;;16.10;11.00;;;;;;;6.82;59.36;99744.71;88290;1273;95567;-75
2022/03/29 01:34:57;;;;;;;15.10;9.80;;;;;;;6.78;59.59;99745.96;88220;1272;77398;-75
2022/03/29 01:37:08;;;;;;;13.60;9.90;;;;;;;6.75;59.50;99745.21;88291;1272;83313;-74
2022/03/29 01:39:18;;;;;;;14.00;10.10;;;;;;;6.73;59.40;99740.11;88230;1272;101465;-75
2022/03/29 01:41:30;;;;;;;14.10;10.20;;;;;;;6.71;59.55;99743.50;88313;1273;89523;-70
2022/03/29 01:43:42;;;;;;;15.60;10.40;;;;;;;6.67;59.84;99745.24;88294;1273;92167;-72
2022/03/29 01:45:54;;;;;;;15.90;10.00;;;;;;;6.64;59.79;99739.77;88173;1274;78618;-73
2022/03/29 01:48:03;;;;;;;13.00;9.30;;;;;;;6.63;59.96;99739.17;88251;1272;83548;-76
2022/03/29 01:50:14;;;;;;;13.30;9.40;;;;;;;6.62;60.00;99733.76;88211;1272;99115;-74
2022/03/29 01:52:23;;;;;;;13.40;9.50;;;;;;;6.57;60.06;99730.37;88315;1273;87924;-75
2022/03/29 01:54:32;;;;;;;15.80;10.00;;;;;;;6.53;60.16;99727.25;88261;1273;95876;-75
2022/03/29 01:56:41;;;;;;;15.40;9.60;;;;;;;6.51;60.24;99723.54;88260;1273;79201;-75
2022/03/29 01:58:49;;;;;;;15.70;10.20;;;;;;;6.47;60.58;99716.70;88293;1273;82312;-76
2022/03/29 02:01:01;;;;;;;16.60;9.70;;;;;;;6.46;60.47;99716.65;88274;1273;97925;-73
2022/03/29 02:03:10;;;;;;;15.80;10.30;;;;;;;6.47;60.69;99720.29;88244;1273;88906;-72
2022/03/29 02:05:20;;;;;;;16.50;10.40;;;;;;;6.48;60.80;99719.65;88282;1273;94108;-72
2022/03/29 02:07:31;;;;;;;14.80;10.00;;;;;;;6.51;60.92;99718.35;88291;1273;79679;-72
2022/03/29 02:09:43;;;;;;;16.90;10.10;;;;;;;6.53;60.84;99715.79;88290;1273;83344;-73
2022/03/29 02:11:55;;;;;;;17.20;9.90;;;;;;;6.51;60.94;99711.51;88282;1273;99989;-76
2022/03/29 02:14:07;;;;;;;16.80;10.80;;;;;;;6.50;61.02;99714.73;88285;1273;88022;-76
2022/03/29 02:16:16;;;;;;;14.80;9.60;;;;;;;6.46;60.96;99716.41;88271;1273;92626;-72
2022/03/29 02:18:28;;;;;;;16.00;9.90;;;;;;;6.46;61.16;99715.58;88270;1273;79873;-72
2022/03/29 02:20:40;;;;;;;16.20;10.10;;;;;;;6.45;61.09;99717.83;88309;1273;82511;-73
2022/03/29 02:22:50;;;;;;;17.00;10.40;;;;;;;6.43;61.00;99708.08;88195;1273;98267;-72
2022/03/29 02:24:58;;;;;;;13.60;10.30;;;;;;;6.42;61.16;99703.54;88228;1272;89221;-72
2022/03/29 02:27:08;;;;;;;15.30;10.40;;;;;;;6.38;61.33;99708.45;88274;1273;94748;-73
2022/03/29 02:29:16;;;;;;;19.00;10.60;;;;;;;6.34;61.20;99709.42;88242;1271;80130;-72
2022/03/29 02:31:25;;;;;;;20.90;10.50;;;;;;;6.32;61.48;99711.08;88362;1270;81025;-73
2022/03/29 02:33:34;;;;;;;12.70;9.80;;;;;;;6.27;61.42;99709.03;88358;1270;98448;-72
2022/03/29 02:35:43;;;;;;;14.90;10.00;;;;;;;6.26;61.48;99705.74;88358;1270;88310;-73
2022/03/29 02:37:52;;;;;;;14.90;9.20;;;;;;;6.25;61.50;99705.46;88365;1270;95441;-74
2022/03/29 02:40:05;;;;;;;20.30;10.70;;;;;;;6.24;61.58;99706.50;88344;1270;78281;-73
2022/03/29 02:42:17;;;;;;;16.40;9.20;;;;;;;6.21;61.82;99704.58;88408;1270;82003;-75
2022/03/29 02:44:27;;;;;;;15.60;10.00;;;;;;;6.20;61.92;99708.13;88354;1270;98781;-75
2022/03/29 02:46:38;;;;;;;15.40;9.80;;;;;;;6.21;62.09;99707.64;88348;1270;88767;-76
2022/03/29 02:48:50;;;;;;;14.30;9.00;;;;;;;6.23;62.15;99712.39;88340;1270;91859;-75
2022/03/29 02:50:59;;;;;;;14.30;9.30;;;;;;;6.27;62.41;99705.31;88380;1270;79716;-75
2022/03/29 02:53:09;;;;;;;15.10;9.60;;;;;;;6.36;62.28;99701.77;88372;1270;82508;-76
2022/03/29 02:55:22;;;;;;;16.40;10.30;;;;;;;6.44;62.43;99699.83;88353;1270;99311;-74
2022/03/29 02:57:31;;;;;;;12.60;9.10;;;;;;;6.48;62.18;99700.27;88398;1270;87723;-75
2022/03/29 02:59:45;;;;;;;14.80;9.20;;;;;;;6.52;62.34;99702.46;88371;1269;95866;-76
2022/03/29 03:01:58;;;;;;;16.20;9.90;;;;;;;6.52;62.42;99697.44;88354;1270;78545;-73
2022/03/29 03:04:08;;;;;;;15.40;9.80;;;;;;;6.52;62.38;99701.73;88338;1270;82470;-72
2022/03/29 03:06:17;;;;;;;13.90;10.00;;;;;;;6.53;62.10;99701.66;88402;1270;98576;-76
2022/03/29 03:08:30;;;;;;;11.70;8.90;;;;;;;6.54;62.23;99699.56;88339;1270;88612;-75
2022/03/29 03:10:42;;;;;;;15.20;9.50;;;;;;;6.54;62.42;99699.77;88345;1270;93931;-74
2022/03/29 03:12:52;;;;;;;17.90;9.80;;;;;;;6.53;62.46;99699.44;88374;1270;77453;-74
2022/03/29 03:15:04;;;;;;;15.10;10.40;;;;;;;6.51;62.35;99694.77;88383;1270;82817;-72
2022/03/29 03:17:13;;;;;;;16.10;9.60;;;;;;;6.49;62.24;99697.86;88376;1270;99750;-73
2022/03/29 03:19:24;;;;;;;13.70;9.50;;;;;;;6.48;62.72;99696.70;88353;1270;89189;-73
2022/03/29 03:21:33;;;;;;;14.10;9.70;;;;;;;6.45;62.51;99689.92;88364;1270;95608;-75
2022/03/29 03:23:42;;;;;;;15.60;10.10;;;;;;;6.43;62.58;99686.05;88339;1270;79027;-75
2022/03/29 03:25:54;;;;;;;14.30;9.70;;;;;;;6.42;62.84;99684.38;88371;1269;83594;-73
2022/03/29 03:28:03;;;;;;;13.10;9.40;;;;;;;6.42;62.65;99685.76;88372;1270;99790;-72
2022/03/29 03:30:17;;;;;;;12.30;9.20;;;;;;;6.41;62.77;99684.98;88388;1270;88773;-74
2022/03/29 03:32:26;;;;;;;13.90;9.60;;;;;;;6.43;62.84;99687.12;88286;1273;94463;-74
2022/03/29 03:34:38;;;;;;;15.50;10.60;;;;;;;6.45;62.99;99693.88;88292;1271;78414;-75
2022/03/29 03:36:51;;;;;;;15.40;9.60;;;;;;;6.47;63.04;99703.79;88418;1270;80788;-75
2022/03/29 03:38:59;;;;;;;17.70;10.20;;;;;;;6.39;63.35;99707.94;88357;1270;99876;-74
2022/03/29 03:41:11;;;;;;;14.90;9.90;;;;;;;6.32;63.33;99710.41;88385;1270;88545;-75
2022/03/29 03:43:20;;;;;;;16.10;11.00;;;;;;;6.28;63.37;99711.24;88344;1270;95461;-75
2022/03/29 03:45:32;;;;;;;13.50;10.40;;;;;;;6.24;63.24;99710.34;88371;1270;78997;-73
2022/03/29 03:47:46;;;;;;;16.50;10.40;;;;;;;6.20;63.43;99710.35;88394;1270;81887;-74
2022/03/29 03:49:55;;;;;;;16.80;10.50;;;;;;;6.12;63.41;99708.84;88353;1270;99868;-75
2022/03/29 03:52:10;;;;;;;16.00;11.00;;;;;;;6.04;63.52;99708.80;88358;1270;87819;-75
2022/03/29 03:54:19;;;;;;;14.70;10.40;;;;;;;5.95;63.54;99710.82;88343;1270;95963;-74
2022/03/29 03:56:31;;;;;;;13.90;10.60;;;;;;;5.90;63.59;99711.69;88288;1273;79106;-72
2022/03/29 03:58:43;;;;;;;16.00;10.60;;;;;;;5.84;63.93;99717.23;88314;1271;82162;-72
2022/03/29 04:00:55;;;;;;;18.30;10.40;;;;;;;5.79;63.88;99724.95;88382;1269;98690;-76
2022/03/29 04:03:04;;;;;;;16.10;10.30;;;;;;;5.78;64.09;99728.14;88369;1270;87303;-76
2022/03/29 04:05:14;;;;;;;14.30;10.60;;;;;;;5.79;64.24;99719.79;88364;1270;92800;-73
2022/03/29 04:07:22;;;;;;;16.10;11.70;;;;;;;5.83;64.32;99713.44;88392;1269;78107;-73
2022/03/29 04:09:35;;;;;;;19.40;11.50;;;;;;;5.90;64.51;99714.10;88356;1269;82567;-73
2022/03/29 04:11:43;;;;;;;16.30;11.20;;;;;;;5.98;65.01;99712.98;88363;1270;98849;-73
2022/03/29 04:13:56;;;;;;;15.20;10.90;;;;;;;6.03;65.11;99720.48;88370;1270;89394;-73
2022/03/29 04:16:08;;;;;;;14.60;11.70;;;;;;;6.06;65.42;99725.17;88364;1270;95684;-75
2022/03/29 04:18:18;;;;;;;15.40;11.90;;;;;;;6.06;65.75;99719.97;88362;1270;77471;-75
2022/03/29 04:20:30;;;;;;;17.20;12.00;;;;;;;6.05;65.81;99722.52;88347;1271;82292;-74
2022/03/29 04:22:39;;;;;;;20.30;12.90;;;;;;;6.06;65.93;99716.69;88334;1270;98616;-75
2022/03/29 04:24:50;;;;;;;19.50;13.30;;;;;;;6.07;66.09;99717.95;88381;1270;89658;-75
2022/03/29 04:26:59;;;;;;;19.00;12.90;;;;;;;6.09;66.06;99721.39;88358;1270;93428;-76
2022/03/29 04:29:09;;;;;;;18.00;12.60;;;;;;;6.06;66.08;99709.79;88361;1270;78124;-75
2022/03/29 04:31:18;;;;;;;19.30;11.80;;;;;;;6.05;66.18;99699.97;88376;1270;82853;-73
2022/03/29 04:33:30;;;;;;;17.50;11.50;;;;;;;6.04;66.18;99702.32;88346;1270;97812;-73
2022/03/29 04:35:39;;;;;;;17.10;11.80;;;;;;;6.00;66.20;99695.27;88372;1270;87791;-74
2022/03/29 04:37:48;;;;;;;14.80;10.70;;;;;;;6.02;66.31;99688.77;88306;1271;94352;-74
2022/03/29 04:40:00;;;;;;;15.70;10.50;;;;;;;6.04;66.56;99692.80;88355;1270;79869;-72
2022/03/29 04:42:12;;;;;;;14.70;11.00;;;;;;;6.12;66.66;99698.25;88387;1270;82489;-71
2022/03/29 04:44:22;;;;;;;17.30;12.20;;;;;;;6.18;67.03;99695.83;88360;1270;99322;-72
2022/03/29 04:46:31;;;;;;;15.10;10.80;;;;;;;6.17;66.77;99702.73;88371;1270;86951;-73
2022/03/29 04:48:42;;;;;;;16.00;12.00;;;;;;;6.21;66.94;99709.45;88336;1270;95272;-73
2022/03/29 04:50:51;;;;;;;15.50;12.30;;;;;;;6.25;67.05;99715.48;88374;1270;80512;-73
2022/03/29 04:53:00;;;;;;;16.90;13.10;;;;;;;6.29;66.96;99715.59;88373;1270;80900;-70
2022/03/29 04:55:13;;;;;;;18.80;13.20;;;;;;;6.31;66.94;99717.52;88358;1270;97771;-71
2022/03/29 04:57:22;;;;;;;18.10;12.80;;;;;;;6.29;66.86;99716.27;88376;1270;86857;-71
2022/03/29 04:59:31;;;;;;;18.80;13.60;;;;;;;6.32;66.87;99716.97;88356;1270;92980;-72
2022/03/29 05:01:39;;;;;;;19.00;13.60;;;;;;;6.33;67.01;99711.14;88348;1270;79981;-70
2022/03/29 05:03:48;;;;;;;17.50;12.50;;;;;;;6.33;66.98;99710.13;88365;1270;80367;-71
2022/03/29 05:05:57;;;;;;;18.70;13.60;;;;;;;6.34;67.07;99710.33;88305;1271;100189;-71
2022/03/29 05:08:07;;;;;;;19.30;11.60;;;;;;;6.35;67.35;99712.32;88358;1268;88720;-73
2022/03/29 05:10:16;;;;;;;14.40;10.60;;;;;;;6.44;67.25;99718.60;88305;1271;95818;-72
2022/03/29 05:12:27;;;;;;;16.60;11.50;;;;;;;6.52;67.21;99717.54;88343;1270;77977;-72
2022/03/29 05:14:39;;;;;;;18.50;12.00;;;;;;;6.57;67.15;99725.00;88364;1270;83058;-71
2022/03/29 05:16:48;;;;;;;16.10;12.30;;;;;;;6.65;67.29;99725.07;88341;1270;99261;-72
2022/03/29 05:18:57;;;;;;;16.00;12.30;;;;;;;6.74;67.26;99724.02;88393;1269;85623;-72
2022/03/29 05:21:10;;;;;;;18.90;12.90;;;;;;;6.81;67.02;99713.88;88354;1269;95858;-72
2022/03/29 05:23:20;;;;;;;18.00;13.20;;;;;;;6.77;67.19;99715.95;88354;1270;77992;-72
2022/03/29 05:25:32;;;;;;;18.60;13.00;;;;;;;6.75;67.22;99724.28;88379;1270;82980;-73
2022/03/29 05:27:41;;;;;;;19.80;13.70;;;;;;;6.69;67.32;99722.13;88364;1270;98994;-71
2022/03/29 05:29:51;;;;;;;17.40;12.90;;;;;;;6.69;67.25;99716.38;88380;1270;87310;-72
2022/03/29 05:32:00;;;;;;;15.70;12.70;;;;;;;6.77;67.16;99724.43;88331;1270;95900;-73
2022/03/29 05:34:10;;;;;;;15.20;12.60;;;;;;;6.74;67.15;99729.05;88327;1269;80157;-72
2022/03/29 05:36:19;;;;;;;20.30;12.70;;;;;;;6.65;67.28;99728.65;88395;1270;80354;-71
2022/03/29 05:38:27;;;;;;;20.20;12.90;;;;;;;6.59;67.37;99724.02;88356;1270;100716;-71
2022/03/29 05:40:37;;;;;;;18.50;12.50;;;;;;;6.61;67.24;99725.31;88355;1270;89333;-71
2022/03/29 05:42:47;;;;;;;16.80;11.90;;;;;;;6.65;67.33;99730.17;88350;1270;95201;-71
2022/03/29 05:44:56;;;;;;;18.10;11.70;;;;;;;6.69;67.45;99727.73;88330;1270;81539;-72
2022/03/29 05:49:32;;;;;;;18.80;13.20;;;;;;;6.76;67.50;99727.05;88357;1270;100017;-71
2022/03/29 05:51:40;;;;;;;20.10;12.80;;;;;;;6.76;67.73;99725.24;88400;1270;89550;-71
2022/03/29 05:53:50;;;;;;;18.70;13.00;;;;;;;6.80;67.71;99723.46;88336;1270;95282;-71
2022/03/29 05:55:58;;;;;;;17.70;12.50;;;;;;;6.85;67.36;99723.66;88385;1270;77347;-70
2022/03/29 05:58:07;;;;;;;17.30;12.40;;;;;;;6.86;67.60;99726.39;88326;1273;82201;-69
2022/03/29 06:00:23;;;;;;;20.40;13.90;;;;;;;6.81;67.57;99721.91;88354;1270;99966;-71
2022/03/29 06:02:34;;;;;;;21.70;14.00;;;;;;;6.84;67.43;99720.55;88373;1270;87155;-71
2022/03/29 06:04:46;;;;;;;22.10;14.60;;;;;;;6.79;67.60;99730.05;88366;1270;93967;-71
2022/03/29 06:06:55;;;;;;;19.00;13.60;;;;;;;6.75;67.59;99733.00;88347;1270;78816;-71
2022/03/29 06:09:04;;;;;;;22.60;14.90;;;;;;;6.74;67.48;99735.63;88376;1270;82891;-72
2022/03/29 06:11:16;;;;;;;20.20;14.70;;;;;;;6.72;67.43;99741.29;88368;1270;97788;-71
2022/03/29 06:13:26;;;;;;;21.60;14.60;;;;;;;6.72;67.49;99741.24;88353;1270;89235;-78
2022/03/29 06:15:35;;;;;;;17.70;13.60;;;;;;;6.69;67.80;99738.98;88342;1270;94628;-69
2022/03/29 06:17:44;;;;;;;25.50;16.10;;;;;;;6.71;67.68;99742.13;88345;1270;78445;-71
2022/03/29 06:19:56;;;;;;;24.40;17.90;;;;;;;6.79;67.73;99746.73;88356;1270;81157;-69
2022/03/29 06:22:08;;;;;;;30.10;21.50;;;;;;;6.77;67.60;99744.79;88380;1270;99619;-69
2022/03/29 06:24:22;;;;;;;28.50;21.20;;;;;;;6.70;67.79;99743.31;88398;1270;89305;-70
2022/03/29 06:26:31;;;;;;;25.40;19.60;;;;;;;6.66;67.69;99749.48;88359;1268;94848;-69
2022/03/29 06:28:42;;;;;;;23.30;18.50;;;;;;;6.63;67.62;99750.75;88382;1270;78318;-70
2022/03/29 06:30:51;;;;;;;26.50;19.70;;;;;;;6.62;67.74;99747.64;88353;1270;83250;-69
2022/03/29 06:32:59;;;;;;;25.10;19.20;;;;;;;6.64;67.74;99746.02;88336;1270;98163;-69
2022/03/29 06:35:12;;;;;;;29.30;22.50;;;;;;;6.70;67.74;99756.56;88381;1270;88538;-70
2022/03/29 06:37:22;;;;;;;34.90;25.20;;;;;;;6.70;67.84;99756.03;88265;1273;94885;-70
2022/03/29 06:39:31;;;;;;;35.70;26.80;;;;;;;6.62;67.93;99757.20;88342;1270;76601;-70
2022/03/29 06:41:43;;;;;;;32.40;25.40;;;;;;;6.59;67.79;99758.03;88346;1270;83202;-71
2022/03/29 06:43:52;;;;;;;32.40;23.50;;;;;;;6.61;67.90;99760.45;88370;1270;99910;-72
2022/03/29 06:46:07;;;;;;;33.40;23.70;;;;;;;6.64;67.89;99761.34;88344;1270;88072;-71
2022/03/29 06:48:19;;;;;;;34.70;24.30;;;;;;;6.67;67.76;99764.25;88264;1273;97888;-70
2022/03/29 06:50:33;;;;;;;31.10;23.40;;;;;;;6.75;67.77;99766.65;88326;1271;81724;-70
2022/03/29 06:52:45;;;;;;;34.90;26.00;;;;;;;6.83;67.76;99765.88;88361;1270;81163;-71
2022/03/29 06:54:57;;;;;;;35.10;25.70;;;;;;;6.90;67.92;99763.58;88323;1271;100166;-70
2022/03/29 06:57:10;;;;;;;42.40;30.10;;;;;;;6.99;67.67;99765.53;88374;1270;88378;-70
2022/03/29 06:59:20;;;;;;;35.60;26.40;;;;;;;7.06;67.71;99766.30;88353;1270;95433;-70
2022/03/29 07:01:29;;;;;;;33.90;25.60;;;;;;;7.10;67.58;99763.31;88362;1270;80978;-70
2022/03/29 07:03:38;;;;;;;33.20;24.60;;;;;;;7.24;67.45;99763.08;88373;1270;82834;-69
2022/03/29 07:05:48;;;;;;;35.70;26.20;;;;;;;7.28;67.31;99764.29;88357;1270;100029;-70
2022/03/29 07:08:00;;;;;;;34.10;24.90;;;;;;;7.29;67.08;99765.34;88264;1270;89048;-70
2022/03/29 07:12:54;;;;;;;32.50;23.90;;;;;;;7.20;67.12;99760.38;88356;1270;79645;-70
2022/03/29 07:15:04;;;;;;;28.80;21.50;;;;;;;7.29;67.18;99759.35;88313;1273;80450;-71
2022/03/29 07:17:15;;;;;;;29.50;22.50;;;;;;;7.36;66.98;99757.95;88340;1270;97952;-71
2022/03/29 07:19:28;;;;;;;28.80;21.70;;;;;;;7.42;67.02;99755.19;86089;1270;3026147;-72
2022/03/29 07:21:42;;;;;;;30.10;21.80;;;;;;;7.51;66.91;99760.46;88385;1270;94758;-71
2022/03/29 07:23:51;;;;;;;28.50;20.60;;;;;;;7.52;66.89;99759.70;88335;1270;78375;-71
2022/03/29 07:26:00;;;;;;;28.80;21.50;;;;;;;7.57;66.77;99760.54;88346;1270;80118;-73
2022/03/29 07:28:12;;;;;;;27.20;20.00;;;;;;;7.60;66.56;99760.09;88392;1270;98771;-73
2022/03/29 07:30:22;;;;;;;27.20;20.10;;;;;;;7.70;66.69;99756.54;88354;1270;88424;-71
2022/03/29 07:32:42;;;;;;;31.70;20.30;;;;;;;7.88;66.59;99756.23;88371;1270;93359;-72
2022/03/29 07:34:53;;;;;;;29.20;19.70;;;;;;;8.12;66.38;99751.88;88304;1271;78084;-72
2022/03/29 07:37:06;;;;;;;25.50;19.70;;;;;;;8.29;66.10;99752.79;88346;1270;82907;-70
2022/03/29 07:39:15;;;;;;;28.80;20.50;;;;;;;8.46;65.70;99749.83;88336;1270;100146;-71
2022/03/29 07:41:27;;;;;;;29.70;21.10;;;;;;;8.55;65.58;99749.08;88370;1270;88871;-72
2022/03/29 07:43:41;;;;;;;32.30;21.20;;;;;;;8.65;65.31;99747.97;88319;1270;94086;-70
2022/03/29 07:45:55;;;;;;;29.60;21.10;;;;;;;8.68;65.27;99745.95;88317;1270;79955;-69
2022/03/29 07:48:04;;;;;;;27.30;20.00;;;;;;;8.77;64.98;99747.22;88375;1270;83552;-65
2022/03/29 07:50:14;;;;;;;27.90;19.80;;;;;;;8.89;64.61;99748.28;88385;1267;99913;-67
2022/03/29 07:52:23;;;;;;;26.50;19.60;;;;;;;8.94;64.31;99750.76;88356;1270;89416;-68
2022/03/29 07:54:36;;;;;;;25.70;19.90;;;;;;;8.99;64.20;99749.02;88338;1270;95105;-68
2022/03/29 07:56:49;;;;;;;27.40;20.40;;;;;;;9.11;64.10;99749.11;88337;1270;77554;-69
2022/03/29 07:58:58;;;;;;;26.90;20.80;;;;;;;9.21;63.87;99749.61;88369;1270;83180;-70
2022/03/29 08:01:11;;;;;;;31.30;21.20;;;;;;;9.13;63.78;99748.39;88350;1270;100165;-70
2022/03/29 08:03:22;;;;;;;26.20;20.30;;;;;;;9.13;63.58;99749.13;88358;1270;87719;-71
2022/03/29 08:05:32;;;;;;;26.00;20.00;;;;;;;9.21;63.35;99747.50;88337;1270;92020;-69
2022/03/29 08:07:42;;;;;;;26.90;20.40;;;;;;;9.23;63.32;99754.19;88354;1270;78146;-67
2022/03/29 08:09:52;;;;;;;30.40;21.90;;;;;;;9.24;63.09;99751.33;88345;1269;82538;-68
2022/03/29 08:12:07;;;;;;;30.20;22.40;;;;;;;9.28;63.12;99753.31;88378;1270;99053;-68
2022/03/29 08:14:21;;;;;;;30.00;23.70;;;;;;;9.43;62.91;99749.05;88341;1270;87939;-68
2022/03/29 08:16:33;;;;;;;29.60;23.30;;;;;;;9.54;62.81;99746.02;88269;1271;94743;-70
2022/03/29 08:18:46;;;;;;;31.00;24.50;;;;;;;9.54;62.56;99742.39;88347;1270;79595;-70
2022/03/29 08:20:56;;;;;;;32.50;25.60;;;;;;;9.51;62.56;99738.04;88391;1270;80761;-68
2022/03/29 08:23:12;;;;;;;31.20;24.70;;;;;;;9.64;62.46;99741.09;88371;1270;98789;-70
2022/03/29 08:25:29;;;;;;;36.30;27.00;;;;;;;9.74;62.40;99739.69;88385;1270;87631;-68
2022/03/29 08:27:40;;;;;;;32.20;26.40;;;;;;;9.92;62.22;99734.21;88257;1273;94930;-68
2022/03/29 08:29:53;;;;;;;33.60;27.50;;;;;;;10.17;62.08;99731.17;88337;1270;78511;-69
2022/03/29 08:32:07;;;;;;;35.20;28.20;;;;;;;10.48;61.76;99732.00;88298;1273;83295;-69
2022/03/29 08:34:15;;;;;;;;;;;;;;;10.71;61.44;99730.34;88378;1270;97729;-71
2022/03/29 08:36:25;;;;;;;38.00;28.70;;;;;;;10.87;61.24;99731.60;88361;1270;88802;-68
2022/03/29 08:38:36;;;;;;;38.30;28.90;;;;;;;10.98;60.77;99731.14;88293;1273;96467;-69
2022/03/29 08:40:59;;;;;;;36.80;29.30;;;;;;;10.93;60.09;99732.89;88278;1271;78169;-68
2022/03/29 08:43:11;;;;;;;37.40;29.20;;;;;;;10.72;59.79;99732.82;88302;1273;80590;-68
2022/03/29 08:45:28;;;;;;;35.60;28.80;;;;;;;10.49;59.83;99730.81;88357;1270;99615;-75
2022/03/29 08:47:40;;;;;;;33.40;28.20;;;;;;;10.43;59.93;99732.23;88389;1270;86377;-69
2022/03/29 08:49:50;;;;;;;33.40;28.70;;;;;;;10.42;59.94;99733.11;88334;1270;94683;-67
2022/03/29 08:52:03;;;;;;;36.50;29.20;;;;;;;10.55;59.85;99732.85;88365;1270;80547;-69
2022/03/29 08:54:12;;;;;;;40.00;29.90;;;;;;;10.65;59.79;99727.00;88368;1270;79856;-71
2022/03/29 08:56:26;;;;;;;35.60;28.00;;;;;;;10.74;59.70;99721.61;88343;1270;98868;-70
2022/03/29 08:58:39;;;;;;;35.00;28.40;;;;;;;10.86;59.54;99719.95;88397;1270;87563;-70
2022/03/29 09:00:49;;;;;;;36.10;29.00;;;;;;;11.05;59.48;99722.98;88335;1270;93038;-68
2022/03/29 09:02:59;;;;;;;37.90;30.90;;;;;;;11.25;59.34;99717.70;88354;1270;79111;-68
2022/03/29 09:05:15;;;;;;;36.00;30.10;;;;;;;11.41;58.94;99711.86;88360;1270;81940;-68
2022/03/29 09:07:24;;;;;;;35.90;29.60;;;;;;;11.65;58.61;99710.30;88349;1270;100002;-69
2022/03/29 09:09:35;;;;;;;34.90;28.90;;;;;;;11.57;58.13;99709.09;88378;1270;87205;-70
2022/03/29 09:11:47;;;;;;;37.50;29.60;;;;;;;11.33;58.04;99712.43;88347;1270;94573;-69
2022/03/29 09:14:07;;;;;;;36.00;29.60;;;;;;;11.13;58.06;99718.12;88360;1270;78322;-70
2022/03/29 09:16:34;;;;;;;32.40;27.60;;;;;;;10.87;57.97;99713.81;88302;1273;83538;-69
2022/03/29 09:18:56;;;;;;;35.10;26.00;;;;;;;10.65;58.15;99714.05;88319;1271;99590;-70
2022/03/29 09:21:14;;;;;;;31.80;27.10;;;;;;;10.49;58.25;99718.59;88360;1270;86161;-69
2022/03/29 09:23:24;;;;;;;32.10;25.30;;;;;;;10.33;58.65;99719.28;88335;1270;95008;-70
2022/03/29 09:25:46;;;;;;;28.80;25.10;;;;;;;10.27;58.67;99718.54;88362;1270;78373;-68
2022/03/29 09:28:02;;;;;;;30.10;23.70;;;;;;;10.24;58.70;99716.18;88364;1270;82740;-71
2022/03/29 09:30:17;;;;;;;29.90;25.40;;;;;;;10.25;58.93;99714.27;88370;1270;100539;-69
2022/03/29 09:32:26;;;;;;;28.30;23.50;;;;;;;10.34;58.91;99710.75;88362;1270;87343;-70
2022/03/29 09:34:39;;;;;;;26.90;22.40;;;;;;;10.47;59.08;99708.03;88356;1270;93524;-72
2022/03/29 09:36:51;;;;;;;29.10;23.90;;;;;;;10.68;59.03;99709.10;88364;1269;80152;-71
2022/03/29 09:39:03;;;;;;;27.70;22.70;;;;;;;10.82;58.71;99703.04;88361;1270;82112;-70
2022/03/29 09:41:28;;;;;;;27.20;22.00;;;;;;;10.84;58.61;99705.33;88358;1270;100306;-72
2022/03/29 09:43:38;;;;;;;29.10;21.40;;;;;;;10.85;58.50;99700.79;88365;1270;88523;-73
2022/03/29 09:45:51;;;;;;;28.10;20.60;;;;;;;10.88;58.08;99699.26;88383;1270;94967;-70
2022/03/29 09:48:28;;;;;;;25.30;20.90;;;;;;;10.99;57.79;99699.70;88354;1268;77718;-68
2022/03/29 09:50:40;;;;;;;24.40;20.40;;;;;;;11.08;57.67;99699.08;88384;1270;83205;-71
2022/03/29 09:52:50;;;;;;;21.20;19.00;;;;;;;11.28;57.67;99692.92;88364;1269;100139;-68
2022/03/29 09:55:17;;;;;;;23.70;20.80;;;;;;;11.60;57.56;99689.23;88372;1270;88948;-68
2022/03/29 09:57:36;;;;;;;23.00;20.20;;;;;;;11.91;57.09;99695.67;88336;1270;95883;-71
2022/03/29 09:59:55;;;;;;;24.90;20.20;;;;;;;11.98;56.60;99693.60;88379;1270;79620;-70
2022/03/29 10:02:08;;;;;;;22.10;19.20;;;;;;;11.79;56.23;99695.02;88362;1270;81198;-69
2022/03/29 10:04:19;;;;;;;22.30;19.50;;;;;;;11.66;56.08;99693.38;88294;1273;98702;-69
2022/03/29 10:06:31;;;;;;;22.00;19.50;;;;;;;11.68;56.11;99689.42;88394;1270;87894;-68
2022/03/29 10:11:16;;;;;;;21.10;18.80;;;;;;;12.03;55.52;99683.57;88352;1269;80343;-68
2022/03/29 10:13:25;;;;;;;24.30;19.80;;;;;;;12.06;55.20;99683.23;88385;1270;81658;-68
2022/03/29 10:15:35;;;;;;;23.60;19.80;;;;;;;12.04;54.94;99683.58;88294;1273;97964;-69
2022/03/29 10:17:48;;;;;;;24.70;19.60;;;;;;;12.03;54.88;99680.83;88382;1270;87395;-69
2022/03/29 10:20:02;;;;;;;22.30;19.50;;;;;;;12.02;54.78;99679.52;88385;1270;92581;-68
2022/03/29 10:22:13;;;;;;;24.80;18.40;;;;;;;11.94;54.55;99675.59;88348;1270;80136;-70